createdAt,value
2017-02-06T04:00:25.443Z,1014.75
2017-02-06T04:00:51.068Z,1014.78
2017-02-06T04:01:16.644Z,1014.74
2017-02-06T04:01:42.208Z,1014.78
2017-02-06T04:02:07.816Z,1014.73
2017-02-06T04:02:33.404Z,1014.77
2017-02-06T04:02:58.972Z,1014.75
2017-02-06T04:03:24.694Z,1014.79
2017-02-06T04:03:50.262Z,1014.81
2017-02-06T04:04:15.841Z,1014.82
2017-02-06T04:04:41.601Z,1014.8
2017-02-06T04:05:07.307Z,1014.82
2017-02-06T04:05:32.943Z,1014.81
2017-02-06T04:05:58.522Z,1014.82
2017-02-06T04:06:24.079Z,1014.87
2017-02-06T04:06:49.716Z,1014.85
2017-02-06T04:07:15.284Z,1014.88
2017-02-06T04:07:40.847Z,1014.91
2017-02-06T04:08:06.416Z,1014.89
2017-02-06T04:08:31.984Z,1014.91
2017-02-06T04:08:57.584Z,1014.9
2017-02-06T04:09:23.130Z,1014.92
2017-02-06T04:09:48.706Z,1014.94
2017-02-06T04:10:14.258Z,1014.94
2017-02-06T04:10:39.894Z,1014.96
2017-02-06T04:11:05.462Z,1015
2017-02-06T04:11:31.101Z,1014.99
2017-02-06T04:11:56.719Z,1014.95
2017-02-06T04:12:22.289Z,1015
2017-02-06T04:12:47.848Z,1015
2017-02-06T04:13:13.454Z,1014.98
2017-02-06T04:13:39.003Z,1015
2017-02-06T04:14:47.568Z,1015.01
2017-02-06T04:15:13.163Z,1015.03
2017-02-06T04:15:38.730Z,1015.05
2017-02-06T04:16:41.899Z,1015.04
2017-02-06T04:17:07.476Z,1015.04
2017-02-06T04:18:20.853Z,1015.07
2017-02-06T04:18:46.408Z,1015.09
2017-02-06T04:19:11.956Z,1015.1
2017-02-06T04:19:37.495Z,1015.09
2017-02-06T04:20:03.062Z,1015.13
2017-02-06T04:20:28.706Z,1015.11
2017-02-06T04:20:54.312Z,1015.1
2017-02-06T04:21:19.868Z,1015.14
2017-02-06T04:21:45.507Z,1015.12
2017-02-06T04:22:11.190Z,1015.16
2017-02-06T04:22:36.718Z,1015.13
2017-02-06T04:23:02.291Z,1015.19
2017-02-06T04:23:27.849Z,1015.18
2017-02-06T04:23:53.404Z,1015.18
2017-02-06T04:24:18.964Z,1015.19
2017-02-06T04:24:44.521Z,1015.13
2017-02-06T04:25:10.092Z,1015.24
2017-02-06T04:25:35.639Z,1015.26
2017-02-06T04:26:01.311Z,1015.24
2017-02-06T04:26:26.861Z,1015.21
2017-02-06T04:26:52.401Z,1015.24
2017-02-06T04:27:18.093Z,1015.25
2017-02-06T04:27:43.661Z,1015.27
2017-02-06T04:28:09.230Z,1015.28
2017-02-06T04:28:34.783Z,1015.29
2017-02-06T04:29:00.345Z,1015.31
2017-02-06T04:29:25.915Z,1015.3
2017-02-06T04:29:51.478Z,1015.33
2017-02-06T04:30:17.035Z,1015.4
2017-02-06T04:30:42.600Z,1015.41
2017-02-06T04:31:08.260Z,1015.39
2017-02-06T04:31:33.831Z,1015.39
2017-02-06T04:31:59.411Z,1015.43
2017-02-06T04:32:25.030Z,1015.41
2017-02-06T04:32:50.593Z,1015.43
2017-02-06T04:33:16.145Z,1015.45
2017-02-06T04:33:41.809Z,1015.43
2017-02-06T04:34:07.373Z,1015.44
2017-02-06T04:34:32.947Z,1015.49
2017-02-06T04:34:58.629Z,1015.48
2017-02-06T04:35:24.188Z,1015.47
2017-02-06T04:35:49.763Z,1015.45
2017-02-06T04:36:15.327Z,1015.52
2017-02-06T04:36:40.890Z,1015.46
2017-02-06T04:37:06.445Z,1015.5
2017-02-06T04:37:32.088Z,1015.49
2017-02-06T04:37:57.581Z,1015.47
2017-02-06T04:38:23.152Z,1015.53
2017-02-06T04:38:48.731Z,1015.55
2017-02-06T04:39:14.428Z,1015.53
2017-02-06T04:39:39.993Z,1015.53
2017-02-06T04:40:05.563Z,1015.55
2017-02-06T04:40:31.153Z,1015.51
2017-02-06T04:40:56.728Z,1015.51
2017-02-06T04:41:22.293Z,1015.54
2017-02-06T04:41:47.858Z,1015.55
2017-02-06T04:42:13.437Z,1015.58
2017-02-06T04:42:39.034Z,1015.53
2017-02-06T04:43:04.607Z,1015.55
2017-02-06T04:43:30.172Z,1015.57
2017-02-06T04:43:55.787Z,1015.55
2017-02-06T04:45:14.903Z,1015.56
2017-02-06T04:45:40.496Z,1015.58
2017-02-06T04:46:06.068Z,1015.57
2017-02-06T04:46:31.633Z,1015.59
2017-02-06T04:46:57.212Z,1015.6
2017-02-06T04:47:22.864Z,1015.62
2017-02-06T04:47:48.688Z,1015.61
2017-02-06T04:48:14.223Z,1015.63
2017-02-06T04:48:39.791Z,1015.65
2017-02-06T04:49:05.360Z,1015.65
2017-02-06T04:49:30.942Z,1015.69
2017-02-06T04:49:56.496Z,1015.67
2017-02-06T04:50:22.078Z,1015.69
2017-02-06T04:50:47.636Z,1015.67
2017-02-06T04:51:13.212Z,1015.69
2017-02-06T04:51:38.842Z,1015.73
2017-02-06T04:52:04.401Z,1015.72
2017-02-06T04:52:29.955Z,1015.75
2017-02-06T04:52:55.680Z,1015.73
2017-02-06T04:53:21.261Z,1015.77
2017-02-06T04:53:46.804Z,1015.73
2017-02-06T04:54:12.351Z,1015.77
2017-02-06T04:54:37.892Z,1015.78
2017-02-06T04:55:03.429Z,1015.8
2017-02-06T04:55:29.018Z,1015.78
2017-02-06T04:55:54.621Z,1015.82
2017-02-06T04:56:20.181Z,1015.84
2017-02-06T04:56:45.790Z,1015.84
2017-02-06T04:57:11.358Z,1015.9
2017-02-06T04:57:36.935Z,1015.89
2017-02-06T04:58:02.521Z,1015.9
2017-02-06T04:58:28.087Z,1015.9
2017-02-06T04:58:53.638Z,1015.91
2017-02-06T04:59:19.206Z,1015.92
2017-02-06T04:59:44.760Z,1015.99
2017-02-06T05:00:10.328Z,1015.96
2017-02-06T05:00:35.974Z,1015.98
2017-02-06T05:01:01.541Z,1016
2017-02-06T05:01:27.115Z,1015.99
2017-02-06T05:01:52.650Z,1015.96
2017-02-06T05:03:59.400Z,1015.96
2017-02-06T05:04:24.994Z,1016
2017-02-06T05:04:50.570Z,1015.99
2017-02-06T05:05:16.114Z,1015.98
2017-02-06T05:05:41.680Z,1015.98
2017-02-06T05:06:07.223Z,1015.97
2017-02-06T05:06:32.794Z,1016
2017-02-06T05:06:58.372Z,1016.01
2017-02-06T05:07:23.951Z,1016.01
2017-02-06T05:07:49.511Z,1016.03
2017-02-06T05:08:15.141Z,1016.02
2017-02-06T05:08:40.692Z,1016.05
2017-02-06T05:09:06.235Z,1016.04
2017-02-06T05:09:31.933Z,1016.06
2017-02-06T05:09:57.472Z,1016.08
2017-02-06T05:10:23.037Z,1016.03
2017-02-06T05:10:48.578Z,1016.03
2017-02-06T05:11:14.132Z,1016.05
2017-02-06T05:11:39.695Z,1016.01
2017-02-06T05:12:05.273Z,1016.08
2017-02-06T05:12:30.841Z,1016.04
2017-02-06T05:12:56.379Z,1016.05
2017-02-06T05:13:21.930Z,1016.06
2017-02-06T05:13:47.487Z,1016.04
2017-02-06T05:14:13.054Z,1016.05
2017-02-06T05:14:38.613Z,1016.08
2017-02-06T05:15:04.170Z,1016.06
2017-02-06T05:15:29.724Z,1016.04
2017-02-06T05:15:55.355Z,1016.1
2017-02-06T05:16:20.920Z,1016.07
2017-02-06T05:16:46.479Z,1016.05
2017-02-06T05:17:12.038Z,1016.09
2017-02-06T05:17:37.660Z,1016.09
2017-02-06T05:18:03.263Z,1016.11
2017-02-06T05:18:28.837Z,1016.1
2017-02-06T05:18:54.423Z,1016.12
2017-02-06T05:19:20.062Z,1016.1
2017-02-06T05:19:45.630Z,1016.12
2017-02-06T05:20:11.223Z,1016.11
2017-02-06T05:20:36.846Z,1016.15
2017-02-06T05:21:02.412Z,1016.1
2017-02-06T05:21:28.017Z,1016.12
2017-02-06T05:21:53.595Z,1016.13
2017-02-06T05:22:19.159Z,1016.12
2017-02-06T05:22:44.714Z,1016.1
2017-02-06T05:23:10.307Z,1016.08
2017-02-06T05:23:35.872Z,1016.12
2017-02-06T05:24:01.451Z,1016.11
2017-02-06T05:24:27.024Z,1016.13
2017-02-06T05:24:52.593Z,1016.09
2017-02-06T05:25:18.145Z,1016.07
2017-02-06T05:25:43.784Z,1016.08
2017-02-06T05:26:09.344Z,1016.08
2017-02-06T05:26:34.898Z,1016.12
2017-02-06T05:27:00.603Z,1016.1
2017-02-06T05:27:26.141Z,1016.1
2017-02-06T05:27:51.715Z,1016.11
2017-02-06T05:28:50.106Z,1016.11
2017-02-06T05:29:15.667Z,1016.16
2017-02-06T05:29:41.237Z,1016.15
2017-02-06T05:30:06.810Z,1016.18
2017-02-06T05:30:32.469Z,1016.18
2017-02-06T05:30:58.018Z,1016.18
2017-02-06T05:31:23.687Z,1016.22
2017-02-06T05:31:49.298Z,1016.23
2017-02-06T05:32:14.859Z,1016.22
2017-02-06T05:32:40.474Z,1016.22
2017-02-06T05:33:06.115Z,1016.18
2017-02-06T05:33:31.685Z,1016.27
2017-02-06T05:33:57.246Z,1016.25
2017-02-06T05:34:22.847Z,1016.24
2017-02-06T05:34:48.458Z,1016.28
2017-02-06T05:35:14.024Z,1016.28
2017-02-06T05:35:39.712Z,1016.27
2017-02-06T05:36:05.276Z,1016.32
2017-02-06T05:36:30.851Z,1016.32
2017-02-06T05:36:56.412Z,1016.26
2017-02-06T05:37:21.971Z,1016.32
2017-02-06T05:37:47.512Z,1016.3
2017-02-06T05:38:13.124Z,1016.28
2017-02-06T05:38:38.690Z,1016.28
2017-02-06T05:39:04.255Z,1016.31
2017-02-06T05:39:29.893Z,1016.28
2017-02-06T05:39:55.455Z,1016.33
2017-02-06T05:40:21.015Z,1016.32
2017-02-06T05:40:46.588Z,1016.28
2017-02-06T05:41:12.156Z,1016.3
2017-02-06T05:41:37.728Z,1016.33
2017-02-06T05:42:03.293Z,1016.34
2017-02-06T05:42:28.867Z,1016.34
2017-02-06T05:42:54.428Z,1016.34
2017-02-06T05:43:20.042Z,1016.32
2017-02-06T05:43:45.623Z,1016.33
2017-02-06T05:44:11.205Z,1016.33
2017-02-06T05:44:36.761Z,1016.3
2017-02-06T05:45:02.401Z,1016.33
2017-02-06T05:45:27.969Z,1016.29
2017-02-06T05:45:53.523Z,1016.28
2017-02-06T05:46:19.084Z,1016.3
2017-02-06T05:46:44.649Z,1016.3
2017-02-06T05:47:10.262Z,1016.34
2017-02-06T05:47:35.809Z,1016.29
2017-02-06T05:48:01.465Z,1016.32
2017-02-06T05:48:27.061Z,1016.32
2017-02-06T05:48:52.641Z,1016.3
2017-02-06T05:50:01.296Z,1016.36
2017-02-06T05:50:26.864Z,1016.32
2017-02-06T05:50:52.509Z,1016.33
2017-02-06T05:51:18.068Z,1016.34
2017-02-06T05:51:43.745Z,1016.37
2017-02-06T05:52:09.405Z,1016.38
2017-02-06T05:52:34.976Z,1016.43
2017-02-06T05:53:00.615Z,1016.43
2017-02-06T05:53:26.189Z,1016.4
2017-02-06T05:53:51.755Z,1016.46
2017-02-06T05:54:17.331Z,1016.49
2017-02-06T05:54:42.953Z,1016.49
2017-02-06T05:55:08.576Z,1016.51
2017-02-06T05:55:34.142Z,1016.48
2017-02-06T05:55:59.739Z,1016.52
2017-02-06T05:56:25.401Z,1016.54
2017-02-06T05:56:50.961Z,1016.51
2017-02-06T05:57:16.654Z,1016.53
2017-02-06T05:57:42.204Z,1016.54
2017-02-06T05:58:07.746Z,1016.54
2017-02-06T05:58:33.304Z,1016.53
2017-02-06T05:58:59.017Z,1016.57
2017-02-06T05:59:24.591Z,1016.54
2017-02-06T05:59:50.164Z,1016.64
2017-02-06T06:00:15.869Z,1016.61
2017-02-06T06:00:41.469Z,1016.62
2017-02-06T06:01:06.996Z,1016.62
2017-02-06T06:01:32.655Z,1016.63
2017-02-06T06:01:58.256Z,1016.61
2017-02-06T06:02:23.826Z,1016.61
2017-02-06T06:02:49.420Z,1016.57
2017-02-06T06:03:15.098Z,1016.57
2017-02-06T06:03:40.645Z,1016.58
2017-02-06T06:04:06.199Z,1016.61
2017-02-06T06:04:31.853Z,1016.62
2017-02-06T06:04:57.427Z,1016.62
2017-02-06T06:05:22.996Z,1016.63
2017-02-06T06:05:48.610Z,1016.65
2017-02-06T06:06:14.263Z,1016.6
2017-02-06T06:06:39.832Z,1016.6
2017-02-06T06:07:05.522Z,1016.61
2017-02-06T06:07:31.079Z,1016.69
2017-02-06T06:07:56.637Z,1016.67
2017-02-06T06:08:22.207Z,1016.68
2017-02-06T06:08:47.765Z,1016.63
2017-02-06T06:09:13.361Z,1016.67
2017-02-06T06:09:38.986Z,1016.67
2017-02-06T06:10:04.556Z,1016.7
2017-02-06T06:10:30.124Z,1016.65
2017-02-06T06:10:55.687Z,1016.68
2017-02-06T06:11:21.240Z,1016.69
2017-02-06T06:11:46.815Z,1016.7
2017-02-06T06:12:12.375Z,1016.73
2017-02-06T06:12:38.033Z,1016.72
2017-02-06T06:13:03.603Z,1016.75
2017-02-06T06:13:29.163Z,1016.76
2017-02-06T06:13:54.794Z,1016.77
2017-02-06T06:14:20.367Z,1016.79
2017-02-06T06:14:45.930Z,1016.82
2017-02-06T06:15:11.527Z,1016.8
2017-02-06T06:15:37.151Z,1016.81
2017-02-06T06:16:02.717Z,1016.82
2017-02-06T06:16:28.323Z,1016.81
2017-02-06T06:16:53.912Z,1016.83
2017-02-06T06:17:19.492Z,1016.84
2017-02-06T06:17:45.108Z,1016.84
2017-02-06T06:18:10.657Z,1016.83
2017-02-06T06:18:36.204Z,1016.84
2017-02-06T06:19:01.848Z,1016.85
2017-02-06T06:19:27.408Z,1016.87
2017-02-06T06:19:52.955Z,1016.88
2017-02-06T06:20:18.518Z,1016.86
2017-02-06T06:20:44.217Z,1016.89
2017-02-06T06:21:09.764Z,1016.87
2017-02-06T06:21:35.355Z,1016.89
2017-02-06T06:22:00.884Z,1016.94
2017-02-06T06:22:26.450Z,1016.95
2017-02-06T06:22:52.003Z,1016.95
2017-02-06T06:23:17.554Z,1016.97
2017-02-06T06:23:43.100Z,1016.99
2017-02-06T06:24:08.754Z,1016.98
2017-02-06T06:24:34.384Z,1017.02
2017-02-06T06:24:59.934Z,1017.03
2017-02-06T06:25:25.508Z,1017.05
2017-02-06T06:25:51.043Z,1017.03
2017-02-06T06:26:16.605Z,1017.05
2017-02-06T06:26:42.188Z,1017.07
2017-02-06T06:27:07.751Z,1017.09
2017-02-06T06:27:33.531Z,1017.05
2017-02-06T06:27:59.095Z,1017.05
2017-02-06T06:28:24.657Z,1017.07
2017-02-06T06:28:50.200Z,1017.07
2017-02-06T06:29:15.797Z,1017.1
2017-02-06T06:29:41.376Z,1017.1
2017-02-06T06:30:06.910Z,1017.05
2017-02-06T06:30:32.529Z,1017.12
2017-02-06T06:30:58.164Z,1017.11
2017-02-06T06:31:23.794Z,1017.1
2017-02-06T06:31:49.419Z,1017.09
2017-02-06T06:32:14.965Z,1017.1
2017-02-06T06:32:40.515Z,1017.09
2017-02-06T06:33:06.101Z,1017.09
2017-02-06T06:33:31.794Z,1017.1
2017-02-06T06:33:57.366Z,1017.1
2017-02-06T06:34:22.944Z,1017.12
2017-02-06T06:34:48.516Z,1017.14
2017-02-06T06:35:14.083Z,1017.13
2017-02-06T06:35:39.660Z,1017.14
2017-02-06T06:36:05.217Z,1017.13
2017-02-06T06:36:30.785Z,1017.17
2017-02-06T06:36:56.340Z,1017.13
2017-02-06T06:37:21.975Z,1017.18
2017-02-06T06:37:47.547Z,1017.18
2017-02-06T06:38:13.124Z,1017.2
2017-02-06T06:38:38.680Z,1017.22
2017-02-06T06:39:04.323Z,1017.19
2017-02-06T06:39:29.873Z,1017.23
2017-02-06T06:39:55.530Z,1017.18
2017-02-06T06:40:21.089Z,1017.2
2017-02-06T06:40:46.626Z,1017.25
2017-02-06T06:41:12.167Z,1017.29
2017-02-06T06:41:37.717Z,1017.24
2017-02-06T06:42:41.179Z,1017.25
2017-02-06T06:43:06.738Z,1017.28
2017-02-06T06:43:32.320Z,1017.29
2017-02-06T06:43:57.914Z,1017.31
2017-02-06T06:44:23.688Z,1017.31
2017-02-06T06:44:49.353Z,1017.33
2017-02-06T06:45:14.908Z,1017.37
2017-02-06T06:45:40.444Z,1017.4
2017-02-06T06:46:05.994Z,1017.42
2017-02-06T06:46:32.372Z,1017.38
2017-02-06T06:46:57.154Z,1017.44
2017-02-06T06:47:22.693Z,1017.43
2017-02-06T06:47:48.236Z,1017.43
2017-02-06T06:48:13.800Z,1017.47
2017-02-06T06:48:39.379Z,1017.49
2017-02-06T06:49:04.889Z,1017.43
2017-02-06T06:49:30.486Z,1017.48
2017-02-06T06:49:56.035Z,1017.48
2017-02-06T06:50:21.602Z,1017.45
2017-02-06T06:50:47.154Z,1017.43
2017-02-06T06:51:12.704Z,1017.46
2017-02-06T06:51:38.314Z,1017.49
2017-02-06T06:52:03.855Z,1017.49
2017-02-06T06:53:17.577Z,1017.49
2017-02-06T06:53:43.257Z,1017.44
2017-02-06T06:54:08.837Z,1017.47
2017-02-06T06:54:34.428Z,1017.53
2017-02-06T06:55:00.137Z,1017.54
2017-02-06T06:55:25.713Z,1017.55
2017-02-06T06:55:51.268Z,1017.51
2017-02-06T06:56:16.835Z,1017.54
2017-02-06T06:56:42.411Z,1017.53
2017-02-06T06:57:07.958Z,1017.56
2017-02-06T06:57:33.524Z,1017.54
2017-02-06T06:57:59.086Z,1017.55
2017-02-06T06:58:24.738Z,1017.53
2017-02-06T06:58:50.317Z,1017.57
2017-02-06T06:59:15.895Z,1017.58
2017-02-06T06:59:41.439Z,1017.54
2017-02-06T07:01:00.410Z,1017.54
2017-02-06T07:01:25.976Z,1017.59
2017-02-06T07:01:51.717Z,1017.62
2017-02-06T07:02:17.278Z,1017.63
2017-02-06T07:02:42.855Z,1017.63
2017-02-06T07:03:08.445Z,1017.64
2017-02-06T07:03:34.217Z,1017.64
2017-02-06T07:03:59.791Z,1017.67
2017-02-06T07:04:25.455Z,1017.66
2017-02-06T07:04:50.990Z,1017.69
2017-02-06T07:05:16.537Z,1017.69
2017-02-06T07:05:42.095Z,1017.7
2017-02-06T07:06:07.747Z,1017.72
2017-02-06T07:06:33.375Z,1017.71
2017-02-06T07:06:58.942Z,1017.72
2017-02-06T07:07:24.533Z,1017.76
2017-02-06T07:07:50.109Z,1017.74
2017-02-06T07:08:15.769Z,1017.77
2017-02-06T07:08:41.360Z,1017.75
2017-02-06T07:09:06.929Z,1017.79
2017-02-06T07:09:32.785Z,1017.8
2017-02-06T07:09:58.449Z,1017.78
2017-02-06T07:10:24.019Z,1017.8
2017-02-06T07:10:49.638Z,1017.81
2017-02-06T07:11:15.237Z,1017.83
2017-02-06T07:11:40.807Z,1017.83
2017-02-06T07:12:06.400Z,1017.81
2017-02-06T07:12:31.959Z,1017.91
2017-02-06T07:12:57.533Z,1017.9
2017-02-06T07:13:23.100Z,1017.87
2017-02-06T07:13:48.705Z,1017.91
2017-02-06T07:14:14.353Z,1017.88
2017-02-06T07:14:39.869Z,1017.82
2017-02-06T07:15:05.419Z,1017.87
2017-02-06T07:15:30.953Z,1017.91
2017-02-06T07:15:56.601Z,1017.88
2017-02-06T07:16:22.255Z,1017.86
2017-02-06T07:16:47.985Z,1017.93
2017-02-06T07:17:13.668Z,1017.92
2017-02-06T07:17:39.217Z,1017.94
2017-02-06T07:18:04.795Z,1017.92
2017-02-06T07:18:30.355Z,1017.92
2017-02-06T07:18:55.908Z,1017.96
2017-02-06T07:19:21.462Z,1017.98
2017-02-06T07:19:47.020Z,1017.94
2017-02-06T07:20:12.574Z,1017.94
2017-02-06T07:20:38.207Z,1017.96
2017-02-06T07:21:03.761Z,1017.98
2017-02-06T07:21:29.326Z,1017.98
2017-02-06T07:21:54.903Z,1017.98
2017-02-06T07:22:20.460Z,1017.96
2017-02-06T07:22:46.019Z,1017.99
2017-02-06T07:23:11.556Z,1017.95
2017-02-06T07:23:37.125Z,1017.97
2017-02-06T07:24:02.669Z,1017.96
2017-02-06T07:24:28.218Z,1017.98
2017-02-06T07:24:53.764Z,1018
2017-02-06T07:25:19.303Z,1018
2017-02-06T07:25:44.861Z,1017.98
2017-02-06T07:26:10.401Z,1017.98
2017-02-06T07:26:35.973Z,1017.96
2017-02-06T07:27:01.523Z,1018.03
2017-02-06T07:27:27.109Z,1017.98
2017-02-06T07:27:52.649Z,1017.96
2017-02-06T07:28:18.199Z,1018
2017-02-06T07:28:43.738Z,1018
2017-02-06T07:29:09.287Z,1018
2017-02-06T07:29:34.907Z,1018.03
2017-02-06T07:30:00.448Z,1017.97
2017-02-06T07:30:25.986Z,1017.99
2017-02-06T07:30:51.663Z,1018.06
2017-02-06T07:31:17.217Z,1018.03
2017-02-06T07:31:43.614Z,1018.01
2017-02-06T07:32:09.188Z,1018.03
2017-02-06T07:32:34.745Z,1018
2017-02-06T07:33:00.383Z,1018
2017-02-06T07:33:25.938Z,1018.04
2017-02-06T07:33:51.507Z,1018
2017-02-06T07:34:17.167Z,1018.04
2017-02-06T07:34:42.719Z,1018.02
2017-02-06T07:35:08.388Z,1018.02
2017-02-06T07:35:33.936Z,1018.08
2017-02-06T07:35:59.505Z,1018.06
2017-02-06T07:36:25.088Z,1018.09
2017-02-06T07:36:50.842Z,1018.08
2017-02-06T07:37:16.404Z,1018.11
2017-02-06T07:37:41.993Z,1018.12
2017-02-06T07:38:07.580Z,1018.13
2017-02-06T07:38:33.228Z,1018.13
2017-02-06T07:38:58.794Z,1018.17
2017-02-06T07:39:24.366Z,1018.15
2017-02-06T07:39:50.039Z,1018.15
2017-02-06T07:40:15.619Z,1018.17
2017-02-06T07:40:41.172Z,1018.17
2017-02-06T07:41:06.869Z,1018.2
2017-02-06T07:41:32.442Z,1018.23
2017-02-06T07:41:58.004Z,1018.21
2017-02-06T07:42:23.569Z,1018.22
2017-02-06T07:42:49.131Z,1018.24
2017-02-06T07:43:14.694Z,1018.26
2017-02-06T07:43:40.258Z,1018.26
2017-02-06T07:44:05.830Z,1018.26
2017-02-06T07:44:31.395Z,1018.29
2017-02-06T07:44:57.038Z,1018.31
2017-02-06T07:45:22.592Z,1018.27
2017-02-06T07:45:48.147Z,1018.25
2017-02-06T07:46:13.830Z,1018.3
2017-02-06T07:46:39.388Z,1018.28
2017-02-06T07:47:04.948Z,1018.27
2017-02-06T07:47:30.509Z,1018.32
2017-02-06T07:47:56.095Z,1018.28
2017-02-06T07:48:21.664Z,1018.26
2017-02-06T07:48:47.211Z,1018.26
2017-02-06T07:49:12.784Z,1018.26
2017-02-06T07:49:38.345Z,1018.28
2017-02-06T07:50:03.985Z,1018.29
2017-02-06T07:50:30.511Z,1018.23
2017-02-06T07:50:56.083Z,1018.26
2017-02-06T07:51:21.659Z,1018.23
2017-02-06T07:51:47.313Z,1018.26
2017-02-06T07:52:12.886Z,1018.28
2017-02-06T07:52:38.520Z,1018.29
2017-02-06T07:53:04.089Z,1018.33
2017-02-06T07:53:29.658Z,1018.28
2017-02-06T07:53:55.379Z,1018.33
2017-02-06T07:54:20.936Z,1018.3
2017-02-06T07:54:46.599Z,1018.29
2017-02-06T07:55:12.148Z,1018.35
2017-02-06T07:55:37.699Z,1018.28
2017-02-06T07:56:03.269Z,1018.35
2017-02-06T07:56:28.857Z,1018.34
2017-02-06T07:56:54.414Z,1018.37
2017-02-06T07:57:19.979Z,1018.38
2017-02-06T07:57:45.553Z,1018.35
2017-02-06T07:58:11.103Z,1018.35
2017-02-06T07:58:36.665Z,1018.34
2017-02-06T07:59:02.195Z,1018.39
2017-02-06T07:59:27.747Z,1018.39
2017-02-06T07:59:53.381Z,1018.39
2017-02-06T08:00:18.936Z,1018.39
2017-02-06T08:00:44.518Z,1018.4
2017-02-06T08:01:10.129Z,1018.44
2017-02-06T08:01:35.687Z,1018.43
2017-02-06T08:02:01.246Z,1018.48
2017-02-06T08:02:26.941Z,1018.48
2017-02-06T08:02:52.513Z,1018.47
2017-02-06T08:03:18.098Z,1018.5
2017-02-06T08:03:43.667Z,1018.52
2017-02-06T08:04:09.222Z,1018.47
2017-02-06T08:04:34.779Z,1018.53
2017-02-06T08:05:00.349Z,1018.53
2017-02-06T08:05:25.915Z,1018.53
2017-02-06T08:05:51.481Z,1018.52
2017-02-06T08:06:17.097Z,1018.58
2017-02-06T08:06:42.676Z,1018.59
2017-02-06T08:07:09.019Z,1018.59
2017-02-06T08:07:34.585Z,1018.59
2017-02-06T08:08:00.145Z,1018.61
2017-02-06T08:08:25.693Z,1018.58
2017-02-06T08:08:51.247Z,1018.64
2017-02-06T08:09:17.394Z,1018.66
2017-02-06T08:09:42.964Z,1018.66
2017-02-06T08:10:08.527Z,1018.67
2017-02-06T08:10:34.089Z,1018.64
2017-02-06T08:10:59.658Z,1018.67
2017-02-06T08:11:25.334Z,1018.65
2017-02-06T08:11:50.913Z,1018.67
2017-02-06T08:12:16.472Z,1018.69
2017-02-06T08:12:42.106Z,1018.7
2017-02-06T08:13:07.664Z,1018.74
2017-02-06T08:13:33.243Z,1018.7
2017-02-06T08:13:58.840Z,1018.72
2017-02-06T08:14:24.390Z,1018.73
2017-02-06T08:14:49.959Z,1018.69
2017-02-06T08:15:15.532Z,1018.74
2017-02-06T08:15:41.092Z,1018.76
2017-02-06T08:16:06.669Z,1018.74
2017-02-06T08:16:32.247Z,1018.75
2017-02-06T08:16:57.809Z,1018.75
2017-02-06T08:17:23.947Z,1018.79
2017-02-06T08:17:49.505Z,1018.79
2017-02-06T08:18:15.835Z,1018.76
2017-02-06T08:18:41.408Z,1018.82
2017-02-06T08:19:07.005Z,1018.86
2017-02-06T08:19:32.558Z,1018.83
2017-02-06T08:19:58.128Z,1018.84
2017-02-06T08:20:23.695Z,1018.86
2017-02-06T08:20:49.262Z,1018.87
2017-02-06T08:21:14.843Z,1018.89
2017-02-06T08:21:40.452Z,1018.87
2017-02-06T08:22:06.008Z,1018.9
2017-02-06T08:22:31.603Z,1018.95
2017-02-06T08:22:57.192Z,1018.9
2017-02-06T08:23:22.760Z,1018.92
2017-02-06T08:23:48.334Z,1018.93
2017-02-06T08:24:13.902Z,1018.94
2017-02-06T08:24:39.455Z,1018.94
2017-02-06T08:25:05.031Z,1018.97
2017-02-06T08:25:30.599Z,1018.91
2017-02-06T08:25:56.144Z,1018.96
2017-02-06T08:26:21.713Z,1018.96
2017-02-06T08:26:47.268Z,1018.97
2017-02-06T08:27:12.838Z,1018.97
2017-02-06T08:27:38.429Z,1018.98
2017-02-06T08:28:03.980Z,1019
2017-02-06T08:28:29.592Z,1018.99
2017-02-06T08:28:55.230Z,1018.99
2017-02-06T08:29:20.795Z,1018.98
2017-02-06T08:29:46.358Z,1018.99
2017-02-06T08:30:11.917Z,1019.04
2017-02-06T08:30:37.456Z,1018.98
2017-02-06T08:31:03.614Z,1018.98
2017-02-06T08:31:29.221Z,1018.99
2017-02-06T08:31:54.766Z,1019.01
2017-02-06T08:32:20.372Z,1018.98
2017-02-06T08:32:45.951Z,1018.97
2017-02-06T08:33:11.520Z,1019.03
2017-02-06T08:33:37.084Z,1019.02
2017-02-06T08:34:02.639Z,1018.98
2017-02-06T08:34:28.209Z,1018.98
2017-02-06T08:34:53.799Z,1019.02
2017-02-06T08:35:19.447Z,1019.06
2017-02-06T08:35:44.993Z,1019.04
2017-02-06T08:36:10.715Z,1019.08
2017-02-06T08:36:36.297Z,1019.05
2017-02-06T08:37:01.854Z,1019.09
2017-02-06T08:37:27.466Z,1019.09
2017-02-06T08:37:53.076Z,1019.09
2017-02-06T08:38:18.677Z,1019.07
2017-02-06T08:38:44.221Z,1019.09
2017-02-06T08:39:09.873Z,1019.09
2017-02-06T08:39:35.474Z,1019.09
2017-02-06T08:40:00.989Z,1019.15
2017-02-06T08:40:26.548Z,1019.16
2017-02-06T08:40:52.248Z,1019.17
2017-02-06T08:41:17.777Z,1019.1
2017-02-06T08:41:43.356Z,1019.12
2017-02-06T08:42:09.003Z,1019.14
2017-02-06T08:42:34.649Z,1019.12
2017-02-06T08:43:00.216Z,1019.18
2017-02-06T08:43:25.815Z,1019.18
2017-02-06T08:43:51.387Z,1019.11
2017-02-06T08:44:16.957Z,1019.17
2017-02-06T08:44:42.534Z,1019.17
2017-02-06T08:45:08.085Z,1019.17
2017-02-06T08:45:33.646Z,1019.15
2017-02-06T08:45:59.194Z,1019.16
2017-02-06T08:46:24.774Z,1019.17
2017-02-06T08:46:50.390Z,1019.16
2017-02-06T08:47:15.950Z,1019.18
2017-02-06T08:47:41.526Z,1019.19
2017-02-06T08:48:07.131Z,1019.15
2017-02-06T08:48:32.704Z,1019.2
2017-02-06T08:48:58.236Z,1019.22
2017-02-06T08:49:23.810Z,1019.18
2017-02-06T08:49:49.350Z,1019.22
2017-02-06T08:50:14.892Z,1019.19
2017-02-06T08:50:40.449Z,1019.24
2017-02-06T08:51:06.008Z,1019.26
2017-02-06T08:51:31.575Z,1019.24
2017-02-06T08:51:57.128Z,1019.23
2017-02-06T08:52:22.690Z,1019.25
2017-02-06T08:52:48.236Z,1019.28
2017-02-06T08:53:13.767Z,1019.27
2017-02-06T08:53:39.358Z,1019.26
2017-02-06T08:54:04.915Z,1019.31
2017-02-06T08:54:30.485Z,1019.31
2017-02-06T08:54:56.046Z,1019.32
2017-02-06T08:55:21.743Z,1019.33
2017-02-06T08:55:47.446Z,1019.34
2017-02-06T08:56:13.219Z,1019.35
2017-02-06T08:56:38.788Z,1019.39
2017-02-06T08:57:04.358Z,1019.36
2017-02-06T08:57:29.962Z,1019.37
2017-02-06T08:57:55.526Z,1019.34
2017-02-06T08:58:21.081Z,1019.35
2017-02-06T08:58:46.685Z,1019.4
2017-02-06T08:59:12.186Z,1019.36
2017-02-06T08:59:37.748Z,1019.35
2017-02-06T09:00:03.411Z,1019.39
2017-02-06T09:00:28.983Z,1019.38
2017-02-06T09:00:54.558Z,1019.43
2017-02-06T09:01:20.124Z,1019.41
2017-02-06T09:01:45.747Z,1019.44
2017-02-06T09:02:11.313Z,1019.42
2017-02-06T09:02:36.879Z,1019.4
2017-02-06T09:03:02.474Z,1019.42
2017-02-06T09:03:28.012Z,1019.46
2017-02-06T09:03:53.586Z,1019.4
2017-02-06T09:04:19.154Z,1019.51
2017-02-06T09:04:44.748Z,1019.5
2017-02-06T09:05:10.323Z,1019.51
2017-02-06T09:05:35.900Z,1019.5
2017-02-06T09:06:01.459Z,1019.54
2017-02-06T09:06:27.155Z,1019.54
2017-02-06T09:06:52.709Z,1019.51
2017-02-06T09:07:18.276Z,1019.51
2017-02-06T09:07:43.967Z,1019.54
2017-02-06T09:08:09.556Z,1019.58
2017-02-06T09:08:35.201Z,1019.56
2017-02-06T09:09:00.767Z,1019.57
2017-02-06T09:09:26.334Z,1019.58
2017-02-06T09:09:51.892Z,1019.59
2017-02-06T09:10:17.456Z,1019.54
2017-02-06T09:10:43.195Z,1019.63
2017-02-06T09:11:08.758Z,1019.56
2017-02-06T09:11:34.330Z,1019.59
2017-02-06T09:11:59.990Z,1019.56
2017-02-06T09:12:25.547Z,1019.62
2017-02-06T09:12:51.116Z,1019.6
2017-02-06T09:13:16.732Z,1019.62
2017-02-06T09:13:42.295Z,1019.59
2017-02-06T09:14:07.851Z,1019.6
2017-02-06T09:14:33.408Z,1019.57
2017-02-06T09:14:58.977Z,1019.63
2017-02-06T09:15:24.554Z,1019.62
2017-02-06T09:15:50.157Z,1019.62
2017-02-06T09:16:15.723Z,1019.66
2017-02-06T09:16:41.285Z,1019.66
2017-02-06T09:17:06.882Z,1019.7
2017-02-06T09:17:32.468Z,1019.66
2017-02-06T09:17:57.985Z,1019.66
2017-02-06T09:18:23.535Z,1019.71
2017-02-06T09:18:49.073Z,1019.71
2017-02-06T09:19:14.692Z,1019.7
2017-02-06T09:19:40.236Z,1019.74